Terminal Aerodrome Forecast
Issued by NWS

Home | Current Version | Previous Version | Text Only | Print | Product List | Glossary On
Versions: 1 2 3 4 5 6 7 8 9 10 11 12 13 14 15 16
000
FTUS46 KSEW 231502 AAA
TAFPAE
TAF AMD
KPAE 231502Z 2315/2412 VRB03KT P6SM BKN025 OVC040
     FM231800 01004KT P6SM SCT025 BKN040
     FM232000 32007KT P6SM SCT040
     FM232300 33008KT P6SM SKC
     FM240600 02005KT P6SM SKC=

USA.gov is the U.S. government's official web portal to all federal, state and local government web resources and services.